sensor_id;sensor_type;location;lat;lon;timestamp;pressure;altitude;pressure_sealevel;temperature;humidity
36378;BME280;22402;42.746;23.606;2024-03-23T04:31:25;93487.28;;;0.77;97.50
36378;BME280;22402;42.746;23.606;2024-03-23T04:34:01;93482.25;;;0.76;98.03
36378;BME280;22402;42.746;23.606;2024-03-23T04:36:46;93487.22;;;0.79;98.44
36378;BME280;22402;42.746;23.606;2024-03-23T04:39:16;93488.31;;;0.75;98.71
36378;BME280;22402;42.746;23.606;2024-03-23T04:41:49;93490.31;;;0.70;99.33
36378;BME280;22402;42.746;23.606;2024-03-23T04:44:15;93495.84;;;0.78;99.73
36378;BME280;22402;42.746;23.606;2024-03-23T04:46:41;93501.81;;;0.78;99.87
36378;BME280;22402;42.746;23.606;2024-03-23T04:49:08;93492.34;;;0.79;100.00
36378;BME280;22402;42.746;23.606;2024-03-23T04:51:36;93503.94;;;0.86;100.00
36378;BME280;22402;42.746;23.606;2024-03-23T04:54:03;93498.63;;;0.89;100.00
36378;BME280;22402;42.746;23.606;2024-03-23T04:56:29;93495.97;;;0.90;100.00
36378;BME280;22402;42.746;23.606;2024-03-23T04:58:54;93502.69;;;0.93;100.00
36378;BME280;22402;42.746;23.606;2024-03-23T05:01:20;93503.41;;;0.95;100.00
36378;BME280;22402;42.746;23.606;2024-03-23T05:03:45;93505.66;;;1.01;100.00
36378;BME280;22402;42.746;23.606;2024-03-23T05:06:10;93503.75;;;1.05;100.00
36378;BME280;22402;42.746;23.606;2024-03-23T05:08:36;93500.09;;;1.09;100.00
36378;BME280;22402;42.746;23.606;2024-03-23T05:11:01;93492.84;;;1.16;100.00
36378;BME280;22402;42.746;23.606;2024-03-23T05:13:28;93498.38;;;1.24;100.00
36378;BME280;22402;42.746;23.606;2024-03-23T05:15:54;93492.81;;;1.31;100.00
36378;BME280;22402;42.746;23.606;2024-03-23T05:18:20;93488.91;;;1.40;100.00
36378;BME280;22402;42.746;23.606;2024-03-23T05:20:45;93486.69;;;1.48;100.00
36378;BME280;22402;42.746;23.606;2024-03-23T05:23:10;93492.97;;;1.58;100.00
36378;BME280;22402;42.746;23.606;2024-03-23T05:25:36;93494.06;;;1.69;100.00
36378;BME280;22402;42.746;23.606;2024-03-23T05:28:01;93487.66;;;1.76;100.00
36378;BME280;22402;42.746;23.606;2024-03-23T05:30:27;93487.75;;;1.89;100.00
36378;BME280;22402;42.746;23.606;2024-03-23T05:32:53;93486.38;;;1.97;100.00
36378;BME280;22402;42.746;23.606;2024-03-23T05:35:18;93495.91;;;2.10;100.00
36378;BME280;22402;42.746;23.606;2024-03-23T05:37:43;93485.81;;;2.21;100.00
36378;BME280;22402;42.746;23.606;2024-03-23T05:40:10;93487.50;;;2.35;100.00
36378;BME280;22402;42.746;23.606;2024-03-23T05:42:36;93489.25;;;2.48;100.00
36378;BME280;22402;42.746;23.606;2024-03-23T05:45:01;93483.13;;;2.64;100.00
36378;BME280;22402;42.746;23.606;2024-03-23T05:47:27;93479.94;;;2.87;100.00
36378;BME280;22402;42.746;23.606;2024-03-23T05:49:52;93491.78;;;3.17;100.00
36378;BME280;22402;42.746;23.606;2024-03-23T05:52:18;93484.19;;;3.54;100.00
36378;BME280;22402;42.746;23.606;2024-03-23T05:54:43;93488.97;;;3.98;99.93
36378;BME280;22402;42.746;23.606;2024-03-23T05:57:11;93481.25;;;4.48;97.56
36378;BME280;22402;42.746;23.606;2024-03-23T05:59:37;93477.47;;;5.01;94.82
36378;BME280;22402;42.746;23.606;2024-03-23T06:02:03;93485.19;;;5.61;91.13
36378;BME280;22402;42.746;23.606;2024-03-23T06:04:29;93473.91;;;6.20;88.01
36378;BME280;22402;42.746;23.606;2024-03-23T06:06:56;93478.91;;;6.77;83.90
36378;BME280;22402;42.746;23.606;2024-03-23T06:09:26;93476.56;;;7.29;80.83
36378;BME280;22402;42.746;23.606;2024-03-23T06:11:52;93476.22;;;7.75;77.80
36378;BME280;22402;42.746;23.606;2024-03-23T06:14:17;93479.34;;;8.21;75.79
36378;BME280;22402;42.746;23.606;2024-03-23T06:16:43;93481.88;;;8.63;73.72
36378;BME280;22402;42.746;23.606;2024-03-23T06:19:08;93479.13;;;9.05;72.59
36378;BME280;22402;42.746;23.606;2024-03-23T06:21:34;93470.53;;;9.43;70.68
36378;BME280;22402;42.746;23.606;2024-03-23T06:23:59;93471.88;;;9.76;69.08
36378;BME280;22402;42.746;23.606;2024-03-23T06:26:25;93463.59;;;10.10;67.41
36378;BME280;22402;42.746;23.606;2024-03-23T06:28:50;93475.31;;;10.43;66.16
36378;BME280;22402;42.746;23.606;2024-03-23T06:31:16;93465.84;;;10.80;64.69
36378;BME280;22402;42.746;23.606;2024-03-23T06:33:41;93477.19;;;11.16;63.97
36378;BME280;22402;42.746;23.606;2024-03-23T06:36:09;93469.22;;;11.53;62.29
36378;BME280;22402;42.746;23.606;2024-03-23T06:38:35;93471.53;;;11.92;61.73
36378;BME280;22402;42.746;23.606;2024-03-23T06:41:06;93473.44;;;12.34;60.26
36378;BME280;22402;42.746;23.606;2024-03-23T06:43:32;93461.72;;;12.72;58.83
36378;BME280;22402;42.746;23.606;2024-03-23T06:45:57;93470.06;;;13.10;57.61
36378;BME280;22402;42.746;23.606;2024-03-23T06:48:25;93468.38;;;13.52;56.60
36378;BME280;22402;42.746;23.606;2024-03-23T06:50:58;93469.59;;;13.98;54.77
36378;BME280;22402;42.746;23.606;2024-03-23T06:53:23;93468.56;;;14.40;53.49
36378;BME280;22402;42.746;23.606;2024-03-23T06:55:55;93460.44;;;14.82;52.33
36378;BME280;22402;42.746;23.606;2024-03-23T06:58:21;93462.41;;;15.20;50.80
36378;BME280;22402;42.746;23.606;2024-03-23T07:00:50;93465.63;;;15.61;49.57
36378;BME280;22402;42.746;23.606;2024-03-23T07:03:20;93463.38;;;16.04;48.28
36378;BME280;22402;42.746;23.606;2024-03-23T07:05:46;93457.28;;;16.41;47.19
36378;BME280;22402;42.746;23.606;2024-03-23T07:08:12;93451.88;;;16.73;46.47
36378;BME280;22402;42.746;23.606;2024-03-23T07:10:40;93453.81;;;17.08;44.83
36378;BME280;22402;42.746;23.606;2024-03-23T07:13:06;93456.81;;;17.42;44.61
36378;BME280;22402;42.746;23.606;2024-03-23T07:15:32;93457.19;;;17.75;43.75
36378;BME280;22402;42.746;23.606;2024-03-23T07:17:59;93445.59;;;18.12;42.43
36378;BME280;22402;42.746;23.606;2024-03-23T07:20:26;93449.53;;;18.44;41.26
36378;BME280;22402;42.746;23.606;2024-03-23T07:22:58;93450.09;;;18.68;41.17
36378;BME280;22402;42.746;23.606;2024-03-23T07:25:23;93444.78;;;18.96;40.82
36378;BME280;22402;42.746;23.606;2024-03-23T07:27:50;93443.31;;;19.28;39.67
36378;BME280;22402;42.746;23.606;2024-03-23T07:30:15;93436.13;;;19.64;39.31
36378;BME280;22402;42.746;23.606;2024-03-23T07:32:44;93439.66;;;19.97;38.54
36378;BME280;22402;42.746;23.606;2024-03-23T07:35:12;93435.22;;;20.31;37.84
36378;BME280;22402;42.746;23.606;2024-03-23T07:37:38;93438.31;;;20.61;37.51
36378;BME280;22402;42.746;23.606;2024-03-23T07:40:03;93429.06;;;20.90;36.42
36378;BME280;22402;42.746;23.606;2024-03-23T07:42:29;93433.88;;;21.20;36.28
36378;BME280;22402;42.746;23.606;2024-03-23T07:44:54;93445.41;;;21.52;35.65
36378;BME280;22402;42.746;23.606;2024-03-23T07:47:22;93429.16;;;21.80;34.89
36378;BME280;22402;42.746;23.606;2024-03-23T07:49:47;93421.06;;;22.00;34.88
36378;BME280;22402;42.746;23.606;2024-03-23T07:52:13;93420.34;;;22.18;34.62
36378;BME280;22402;42.746;23.606;2024-03-23T07:54:38;93413.84;;;22.39;34.22
36378;BME280;22402;42.746;23.606;2024-03-23T07:57:03;93418.13;;;22.65;34.20
36378;BME280;22402;42.746;23.606;2024-03-23T07:59:29;93412.63;;;22.85;33.53
36378;BME280;22402;42.746;23.606;2024-03-23T08:01:57;93412.81;;;23.09;33.44
36378;BME280;22402;42.746;23.606;2024-03-23T08:04:22;93412.88;;;23.39;33.09
36378;BME280;22402;42.746;23.606;2024-03-23T08:06:47;93409.22;;;23.70;32.60
36378;BME280;22402;42.746;23.606;2024-03-23T08:09:15;93415.38;;;24.01;32.11
36378;BME280;22402;42.746;23.606;2024-03-23T08:11:40;93405.22;;;24.21;31.72
36378;BME280;22402;42.746;23.606;2024-03-23T08:14:06;93411.44;;;24.45;31.06
36378;BME280;22402;42.746;23.606;2024-03-23T08:16:36;93411.09;;;24.65;30.83
36378;BME280;22402;42.746;23.606;2024-03-23T08:19:02;93415.03;;;24.86;30.53
36378;BME280;22402;42.746;23.606;2024-03-23T08:21:29;93411.19;;;25.06;30.19
36378;BME280;22402;42.746;23.606;2024-03-23T08:23:54;93401.13;;;25.19;29.43
36378;BME280;22402;42.746;23.606;2024-03-23T08:26:20;93402.69;;;25.44;29.37
36378;BME280;22402;42.746;23.606;2024-03-23T08:28:45;93405.75;;;25.64;28.79
36378;BME280;22402;42.746;23.606;2024-03-23T08:31:12;93410.59;;;25.79;28.80
36378;BME280;22402;42.746;23.606;2024-03-23T08:33:38;93404.34;;;26.02;28.79
36378;BME280;22402;42.746;23.606;2024-03-23T08:36:05;93395.28;;;26.20;28.21
36378;BME280;22402;42.746;23.606;2024-03-23T08:38:31;93400.56;;;26.32;27.78
36378;BME280;22402;42.746;23.606;2024-03-23T08:41:09;93396.88;;;26.50;28.02
36378;BME280;22402;42.746;23.606;2024-03-23T08:43:38;93395.41;;;26.59;27.42
36378;BME280;22402;42.746;23.606;2024-03-23T08:46:06;93391.22;;;26.63;26.87
36378;BME280;22402;42.746;23.606;2024-03-23T08:48:36;93394.69;;;26.64;26.84
36378;BME280;22402;42.746;23.606;2024-03-23T08:51:05;93388.84;;;26.84;27.21
36378;BME280;22402;42.746;23.606;2024-03-23T08:53:31;93383.13;;;27.14;27.33
36378;BME280;22402;42.746;23.606;2024-03-23T08:55:57;93385.69;;;27.47;27.06
36378;BME280;22402;42.746;23.606;2024-03-23T08:58:26;93381.44;;;27.73;26.17
36378;BME280;22402;42.746;23.606;2024-03-23T09:00:56;93376.28;;;27.89;25.82
36378;BME280;22402;42.746;23.606;2024-03-23T09:03:25;93370.97;;;27.94;25.68
36378;BME280;22402;42.746;23.606;2024-03-23T09:05:51;93362.81;;;28.11;25.56
36378;BME280;22402;42.746;23.606;2024-03-23T09:08:17;93365.38;;;28.28;25.31
36378;BME280;22402;42.746;23.606;2024-03-23T09:10:43;93363.13;;;28.42;25.30
36378;BME280;22402;42.746;23.606;2024-03-23T09:13:09;93359.41;;;28.48;24.94
36378;BME280;22402;42.746;23.606;2024-03-23T09:15:35;93348.22;;;28.56;24.88
36378;BME280;22402;42.746;23.606;2024-03-23T09:18:01;93355.81;;;28.69;24.63
36378;BME280;22402;42.746;23.606;2024-03-23T09:20:27;93352.19;;;28.85;24.26
36378;BME280;22402;42.746;23.606;2024-03-23T09:22:53;93347.41;;;28.98;23.75
36378;BME280;22402;42.746;23.606;2024-03-23T09:25:18;93348.34;;;29.19;23.36
36378;BME280;22402;42.746;23.606;2024-03-23T09:27:46;93346.00;;;29.38;23.21
36378;BME280;22402;42.746;23.606;2024-03-23T09:30:12;93338.00;;;29.53;23.44
36378;BME280;22402;42.746;23.606;2024-03-23T09:32:38;93331.66;;;29.69;22.88
36378;BME280;22402;42.746;23.606;2024-03-23T09:35:04;93330.06;;;29.79;22.63
36378;BME280;22402;42.746;23.606;2024-03-23T09:37:29;93332.75;;;29.84;21.80
36378;BME280;22402;42.746;23.606;2024-03-23T09:39:57;93320.66;;;29.91;21.65
36378;BME280;22402;42.746;23.606;2024-03-23T09:42:24;93320.97;;;30.10;21.33
36378;BME280;22402;42.746;23.606;2024-03-23T09:44:51;93323.66;;;30.15;21.18
36378;BME280;22402;42.746;23.606;2024-03-23T09:47:17;93314.78;;;30.15;20.81
36378;BME280;22402;42.746;23.606;2024-03-23T09:49:46;93312.91;;;30.15;20.71
36378;BME280;22402;42.746;23.606;2024-03-23T09:52:15;93298.94;;;30.13;20.69
36378;BME280;22402;42.746;23.606;2024-03-23T09:54:40;93300.56;;;30.30;20.69
36378;BME280;22402;42.746;23.606;2024-03-23T09:57:06;93298.41;;;30.52;20.33
36378;BME280;22402;42.746;23.606;2024-03-23T09:59:32;93292.44;;;30.71;20.05
36378;BME280;22402;42.746;23.606;2024-03-23T10:02:04;93289.19;;;30.94;20.04
36378;BME280;22402;42.746;23.606;2024-03-23T10:04:41;93282.38;;;31.17;19.82
36378;BME280;22402;42.746;23.606;2024-03-23T10:07:13;93285.56;;;31.35;19.34
36378;BME280;22402;42.746;23.606;2024-03-23T10:09:39;93283.09;;;31.43;18.54
36378;BME280;22402;42.746;23.606;2024-03-23T10:12:10;93287.69;;;31.43;18.54
36378;BME280;22402;42.746;23.606;2024-03-23T10:14:37;93275.56;;;31.45;18.81
36378;BME280;22402;42.746;23.606;2024-03-23T10:19:48;93272.69;;;31.71;18.04
36378;BME280;22402;42.746;23.606;2024-03-23T10:22:19;93275.38;;;31.76;18.42
36378;BME280;22402;42.746;23.606;2024-03-23T10:24:45;93262.19;;;31.74;18.79
36378;BME280;22402;42.746;23.606;2024-03-23T10:27:22;93270.22;;;31.79;19.14
36378;BME280;22402;42.746;23.606;2024-03-23T10:29:50;93259.16;;;31.86;18.91
36378;BME280;22402;42.746;23.606;2024-03-23T10:32:17;93260.63;;;32.08;18.62
36378;BME280;22402;42.746;23.606;2024-03-23T10:34:43;93248.88;;;32.28;18.62
36378;BME280;22402;42.746;23.606;2024-03-23T10:37:09;93252.72;;;32.51;18.01
36378;BME280;22402;42.746;23.606;2024-03-23T10:39:39;93254.84;;;32.54;17.88
36378;BME280;22402;42.746;23.606;2024-03-23T10:42:09;93244.94;;;32.44;18.11
36378;BME280;22402;42.746;23.606;2024-03-23T10:44:37;93237.91;;;32.48;18.14
36378;BME280;22402;42.746;23.606;2024-03-23T10:47:05;93236.22;;;32.57;17.74
36378;BME280;22402;42.746;23.606;2024-03-23T10:49:32;93234.81;;;32.60;18.23
36378;BME280;22402;42.746;23.606;2024-03-23T10:52:04;93231.94;;;32.51;17.98
36378;BME280;22402;42.746;23.606;2024-03-23T10:54:31;93225.41;;;32.28;17.43
36378;BME280;22402;42.746;23.606;2024-03-23T10:57:02;93216.03;;;32.20;17.99
36378;BME280;22402;42.746;23.606;2024-03-23T10:59:29;93211.22;;;32.47;18.08
36378;BME280;22402;42.746;23.606;2024-03-23T11:02:00;93210.72;;;32.68;17.64
36378;BME280;22402;42.746;23.606;2024-03-23T11:04:35;93203.44;;;32.93;17.63
36378;BME280;22402;42.746;23.606;2024-03-23T11:09:55;93192.91;;;32.91;16.75
36378;BME280;22402;42.746;23.606;2024-03-23T11:14:50;93179.59;;;32.76;16.20
36378;BME280;22402;42.746;23.606;2024-03-23T11:17:23;93183.97;;;32.72;16.84
36378;BME280;22402;42.746;23.606;2024-03-23T11:20:05;93175.13;;;32.66;16.33
36378;BME280;22402;42.746;23.606;2024-03-23T11:22:47;93163.75;;;32.45;16.75
36378;BME280;22402;42.746;23.606;2024-03-23T11:27:42;93157.25;;;32.71;16.86
36378;BME280;22402;42.746;23.606;2024-03-23T11:30:15;93156.63;;;33.03;16.53
36378;BME280;22402;42.746;23.606;2024-03-23T11:32:42;93156.09;;;33.20;15.91
36378;BME280;22402;42.746;23.606;2024-03-23T11:35:08;93150.19;;;33.36;16.40
36378;BME280;22402;42.746;23.606;2024-03-23T11:37:38;93127.72;;;33.60;15.61
36378;BME280;22402;42.746;23.606;2024-03-23T11:40:19;93131.41;;;33.83;15.68
36378;BME280;22402;42.746;23.606;2024-03-23T11:42:44;93124.94;;;33.98;15.71
36378;BME280;22402;42.746;23.606;2024-03-23T11:45:10;93124.50;;;34.10;15.33
36378;BME280;22402;42.746;23.606;2024-03-23T11:47:36;93122.91;;;34.22;15.65
36378;BME280;22402;42.746;23.606;2024-03-23T11:50:01;93114.38;;;34.29;15.57
36378;BME280;22402;42.746;23.606;2024-03-23T11:52:27;93114.69;;;34.28;15.44
36378;BME280;22402;42.746;23.606;2024-03-23T11:55:03;93108.50;;;34.27;15.08
36378;BME280;22402;42.746;23.606;2024-03-23T11:57:29;93095.06;;;34.22;15.22
36378;BME280;22402;42.746;23.606;2024-03-23T11:59:55;93094.22;;;34.08;15.29
36378;BME280;22402;42.746;23.606;2024-03-23T12:02:20;93093.09;;;33.95;16.01
36378;BME280;22402;42.746;23.606;2024-03-23T12:04:45;93088.44;;;33.81;15.96
36378;BME280;22402;42.746;23.606;2024-03-23T12:07:15;93081.09;;;33.68;16.09
36378;BME280;22402;42.746;23.606;2024-03-23T12:09:43;93073.09;;;33.63;17.08
36378;BME280;22402;42.746;23.606;2024-03-23T12:12:17;93069.50;;;33.68;17.36
36378;BME280;22402;42.746;23.606;2024-03-23T12:14:44;93065.88;;;33.72;16.98
36378;BME280;22402;42.746;23.606;2024-03-23T12:17:13;93062.59;;;33.75;17.53
36378;BME280;22402;42.746;23.606;2024-03-23T12:19:39;93058.91;;;33.71;17.02
36378;BME280;22402;42.746;23.606;2024-03-23T12:22:05;93053.50;;;33.71;17.75
36378;BME280;22402;42.746;23.606;2024-03-23T12:24:32;93062.72;;;33.70;17.13
36378;BME280;22402;42.746;23.606;2024-03-23T12:30:00;93054.72;;;33.27;17.79
36378;BME280;22402;42.746;23.606;2024-03-23T12:32:27;93053.00;;;33.18;17.87
36378;BME280;22402;42.746;23.606;2024-03-23T12:34:52;93048.44;;;33.13;17.77
36378;BME280;22402;42.746;23.606;2024-03-23T12:37:18;93034.44;;;32.92;17.49
36378;BME280;22402;42.746;23.606;2024-03-23T12:39:44;93036.56;;;32.76;18.03
36378;BME280;22402;42.746;23.606;2024-03-23T12:42:09;93032.69;;;32.82;17.78
36378;BME280;22402;42.746;23.606;2024-03-23T12:44:35;93030.72;;;32.88;17.76
36378;BME280;22402;42.746;23.606;2024-03-23T12:47:01;93031.50;;;32.88;17.23
36378;BME280;22402;42.746;23.606;2024-03-23T12:49:26;93034.34;;;32.59;17.21
36378;BME280;22402;42.746;23.606;2024-03-23T12:51:55;93020.34;;;32.33;17.99
36378;BME280;22402;42.746;23.606;2024-03-23T12:54:22;93023.34;;;32.32;18.50
36378;BME280;22402;42.746;23.606;2024-03-23T12:56:47;93015.25;;;32.32;17.62
36378;BME280;22402;42.746;23.606;2024-03-23T12:59:13;93021.97;;;32.34;17.61
36378;BME280;22402;42.746;23.606;2024-03-23T13:01:39;93010.72;;;32.27;17.16
36378;BME280;22402;42.746;23.606;2024-03-23T13:04:05;93003.34;;;32.14;17.67
36378;BME280;22402;42.746;23.606;2024-03-23T13:06:30;93008.56;;;32.05;17.57
36378;BME280;22402;42.746;23.606;2024-03-23T13:09:03;92994.19;;;31.86;18.00
36378;BME280;22402;42.746;23.606;2024-03-23T13:11:29;92998.09;;;31.74;17.84
36378;BME280;22402;42.746;23.606;2024-03-23T13:13:55;92991.75;;;31.65;18.69
36378;BME280;22402;42.746;23.606;2024-03-23T13:16:20;92992.56;;;31.61;18.38
36378;BME280;22402;42.746;23.606;2024-03-23T13:18:46;92973.53;;;31.52;18.27
36378;BME280;22402;42.746;23.606;2024-03-23T13:21:11;92984.66;;;31.45;18.06
36378;BME280;22402;42.746;23.606;2024-03-23T13:23:37;92983.66;;;31.36;18.77
36378;BME280;22402;42.746;23.606;2024-03-23T13:26:05;92979.09;;;31.37;19.02
36378;BME280;22402;42.746;23.606;2024-03-23T13:28:30;92966.03;;;31.49;19.15
36378;BME280;22402;42.746;23.606;2024-03-23T13:30:56;92958.66;;;31.60;19.12
36378;BME280;22402;42.746;23.606;2024-03-23T13:33:31;92967.59;;;31.55;18.95
36378;BME280;22402;42.746;23.606;2024-03-23T13:36:00;92961.59;;;31.29;18.28
36378;BME280;22402;42.746;23.606;2024-03-23T13:38:25;92962.50;;;31.19;19.07
36378;BME280;22402;42.746;23.606;2024-03-23T13:40:57;92964.06;;;31.25;18.60
36378;BME280;22402;42.746;23.606;2024-03-23T13:43:26;92955.31;;;31.15;18.40
36378;BME280;22402;42.746;23.606;2024-03-23T13:45:56;92962.75;;;30.94;19.11
36378;BME280;22402;42.746;23.606;2024-03-23T13:48:23;92950.22;;;30.79;18.91
36378;BME280;22402;42.746;23.606;2024-03-23T13:51:03;92948.00;;;30.47;18.51
36378;BME280;22402;42.746;23.606;2024-03-23T13:53:29;92941.69;;;30.12;18.55
36378;BME280;22402;42.746;23.606;2024-03-23T13:55:56;92940.22;;;29.85;19.33
36378;BME280;22402;42.746;23.606;2024-03-23T13:58:22;92941.03;;;29.81;19.73
36378;BME280;22402;42.746;23.606;2024-03-23T14:00:50;92942.66;;;29.71;19.64
36378;BME280;22402;42.746;23.606;2024-03-23T14:03:16;92937.88;;;29.53;20.08
36378;BME280;22402;42.746;23.606;2024-03-23T14:05:46;92937.06;;;29.47;19.96
36378;BME280;22402;42.746;23.606;2024-03-23T14:08:14;92938.97;;;29.42;19.82
36378;BME280;22402;42.746;23.606;2024-03-23T14:10:41;92929.59;;;29.29;19.65
36378;BME280;22402;42.746;23.606;2024-03-23T14:13:07;92925.06;;;29.14;19.65
36378;BME280;22402;42.746;23.606;2024-03-23T14:15:33;92929.38;;;28.90;19.39
36378;BME280;22402;42.746;23.606;2024-03-23T14:17:58;92919.19;;;28.61;19.45
36378;BME280;22402;42.746;23.606;2024-03-23T14:20:24;92916.44;;;28.40;20.14
36378;BME280;22402;42.746;23.606;2024-03-23T14:22:51;92917.53;;;28.29;20.13
36378;BME280;22402;42.746;23.606;2024-03-23T14:25:16;92918.03;;;28.16;20.15
36378;BME280;22402;42.746;23.606;2024-03-23T14:27:46;92922.00;;;27.98;20.22
36378;BME280;22402;42.746;23.606;2024-03-23T14:30:12;92913.13;;;27.82;20.51
36378;BME280;22402;42.746;23.606;2024-03-23T14:32:38;92905.03;;;27.77;20.94
36378;BME280;22402;42.746;23.606;2024-03-23T14:35:04;92912.31;;;27.82;21.11
36378;BME280;22402;42.746;23.606;2024-03-23T14:37:30;92910.13;;;27.73;20.61
36378;BME280;22402;42.746;23.606;2024-03-23T14:39:56;92905.53;;;27.64;20.70
36378;BME280;22402;42.746;23.606;2024-03-23T14:42:22;92891.56;;;27.57;20.69
36378;BME280;22402;42.746;23.606;2024-03-23T14:44:49;92900.13;;;27.54;21.18
36378;BME280;22402;42.746;23.606;2024-03-23T14:47:14;92904.06;;;27.36;20.98
36378;BME280;22402;42.746;23.606;2024-03-23T14:49:40;92898.00;;;27.08;21.07
36378;BME280;22402;42.746;23.606;2024-03-23T14:52:06;92898.09;;;26.81;21.62
36378;BME280;22402;42.746;23.606;2024-03-23T14:54:34;92893.13;;;26.57;21.66
36378;BME280;22402;42.746;23.606;2024-03-23T14:57:00;92891.31;;;26.36;21.72
36378;BME280;22402;42.746;23.606;2024-03-23T14:59:26;92885.78;;;26.16;21.59
36378;BME280;22402;42.746;23.606;2024-03-23T15:01:51;92891.44;;;25.92;21.58
36378;BME280;22402;42.746;23.606;2024-03-23T15:04:16;92881.50;;;25.65;21.58
36378;BME280;22402;42.746;23.606;2024-03-23T15:06:42;92874.03;;;25.40;22.00
36378;BME280;22402;42.746;23.606;2024-03-23T15:09:07;92871.97;;;25.26;22.28
36378;BME280;22402;42.746;23.606;2024-03-23T15:11:34;92874.09;;;25.07;22.52
36378;BME280;22402;42.746;23.606;2024-03-23T15:14:00;92875.59;;;24.81;22.78
36378;BME280;22402;42.746;23.606;2024-03-23T15:16:25;92868.63;;;24.58;23.41
36378;BME280;22402;42.746;23.606;2024-03-23T15:18:51;92868.44;;;24.30;23.59
36378;BME280;22402;42.746;23.606;2024-03-23T15:21:16;92865.50;;;23.98;23.94
36378;BME280;22402;42.746;23.606;2024-03-23T15:23:46;92852.56;;;23.61;24.44
36378;BME280;22402;42.746;23.606;2024-03-23T15:26:14;92857.47;;;23.24;25.06
36378;BME280;22402;42.746;23.606;2024-03-23T15:28:42;92858.78;;;22.86;25.38
36378;BME280;22402;42.746;23.606;2024-03-23T15:31:25;92860.19;;;22.42;25.62
36378;BME280;22402;42.746;23.606;2024-03-23T15:33:50;92860.34;;;22.05;25.66
36378;BME280;22402;42.746;23.606;2024-03-23T15:36:16;92862.56;;;21.66;26.25
36378;BME280;22402;42.746;23.606;2024-03-23T15:38:42;92863.28;;;21.25;26.80
36378;BME280;22402;42.746;23.606;2024-03-23T15:41:08;92859.13;;;20.80;27.11
36378;BME280;22402;42.746;23.606;2024-03-23T15:43:34;92863.81;;;20.35;27.79
36378;BME280;22402;42.746;23.606;2024-03-23T15:46:04;92851.41;;;19.85;28.10
36378;BME280;22402;42.746;23.606;2024-03-23T15:48:31;92848.44;;;19.37;28.83
36378;BME280;22402;42.746;23.606;2024-03-23T15:50:59;92851.06;;;18.92;28.96
36378;BME280;22402;42.746;23.606;2024-03-23T15:53:26;92861.31;;;18.48;29.71
36378;BME280;22402;42.746;23.606;2024-03-23T15:55:58;92857.31;;;18.06;30.10
36378;BME280;22402;42.746;23.606;2024-03-23T15:58:24;92853.63;;;17.67;29.79
36378;BME280;22402;42.746;23.606;2024-03-23T16:01:01;92858.81;;;17.27;30.61
36378;BME280;22402;42.746;23.606;2024-03-23T16:03:27;92856.66;;;16.89;31.05
36378;BME280;22402;42.746;23.606;2024-03-23T16:05:55;92855.25;;;16.52;32.36
36378;BME280;22402;42.746;23.606;2024-03-23T16:08:21;92857.88;;;16.17;32.14
36378;BME280;22402;42.746;23.606;2024-03-23T16:10:47;92848.53;;;15.80;32.31
36378;BME280;22402;42.746;23.606;2024-03-23T16:13:13;92854.06;;;15.48;32.96
36378;BME280;22402;42.746;23.606;2024-03-23T16:15:38;92847.31;;;15.18;35.32
36378;BME280;22402;42.746;23.606;2024-03-23T16:18:04;92853.63;;;14.87;35.86
36378;BME280;22402;42.746;23.606;2024-03-23T16:20:29;92850.25;;;14.57;36.89
36378;BME280;22402;42.746;23.606;2024-03-23T16:22:57;92852.69;;;14.29;37.90
36378;BME280;22402;42.746;23.606;2024-03-23T16:25:22;92856.75;;;14.02;38.93
36378;BME280;22402;42.746;23.606;2024-03-23T16:27:49;92850.09;;;13.76;40.25
36378;BME280;22402;42.746;23.606;2024-03-23T16:30:14;92850.66;;;13.49;40.54
36378;BME280;22402;42.746;23.606;2024-03-23T16:32:40;92848.38;;;13.22;40.11
36378;BME280;22402;42.746;23.606;2024-03-23T16:35:06;92852.63;;;13.00;40.83
36378;BME280;22402;42.746;23.606;2024-03-23T16:37:35;92861.25;;;12.78;40.76
36378;BME280;22402;42.746;23.606;2024-03-23T16:40:01;92852.19;;;12.58;41.20
36378;BME280;22402;42.746;23.606;2024-03-23T16:42:26;92854.22;;;12.39;41.85
36378;BME280;22402;42.746;23.606;2024-03-23T16:44:52;92851.84;;;12.21;41.51
36378;BME280;22402;42.746;23.606;2024-03-23T16:47:18;92850.25;;;12.04;42.27
36378;BME280;22402;42.746;23.606;2024-03-23T16:49:43;92856.34;;;11.88;43.53
36378;BME280;22402;42.746;23.606;2024-03-23T16:52:09;92859.59;;;11.74;43.27
36378;BME280;22402;42.746;23.606;2024-03-23T16:54:35;92856.84;;;11.59;44.23
36378;BME280;22402;42.746;23.606;2024-03-23T16:57:01;92865.31;;;11.45;44.03
36378;BME280;22402;42.746;23.606;2024-03-23T16:59:27;92857.84;;;11.33;44.33
36378;BME280;22402;42.746;23.606;2024-03-23T17:01:53;92864.00;;;11.24;44.48
36378;BME280;22402;42.746;23.606;2024-03-23T17:04:21;92865.31;;;11.12;45.07
36378;BME280;22402;42.746;23.606;2024-03-23T17:06:47;92873.94;;;11.04;44.81
36378;BME280;22402;42.746;23.606;2024-03-23T17:09:13;92868.41;;;10.99;45.65
36378;BME280;22402;42.746;23.606;2024-03-23T17:11:39;92868.06;;;10.94;45.57
36378;BME280;22402;42.746;23.606;2024-03-23T17:14:07;92876.88;;;10.93;45.78
36378;BME280;22402;42.746;23.606;2024-03-23T17:16:33;92884.03;;;10.91;46.61
36378;BME280;22402;42.746;23.606;2024-03-23T17:18:58;92881.59;;;10.89;46.21
36378;BME280;22402;42.746;23.606;2024-03-23T17:21:24;92887.94;;;10.87;46.83
36378;BME280;22402;42.746;23.606;2024-03-23T17:23:49;92885.97;;;10.81;47.25
36378;BME280;22402;42.746;23.606;2024-03-23T17:26:19;92890.84;;;10.76;47.80
36378;BME280;22402;42.746;23.606;2024-03-23T17:28:46;92892.78;;;10.73;46.95
36378;BME280;22402;42.746;23.606;2024-03-23T17:31:16;92892.94;;;10.72;47.97
36378;BME280;22402;42.746;23.606;2024-03-23T17:33:41;92891.16;;;10.72;47.01